createdAt,value
2023-03-23T15:57:58.678Z,13.60
2023-03-23T16:00:27.583Z,13.50
2023-03-23T16:03:01.469Z,13.50
2023-03-23T16:05:28.348Z,13.30
2023-03-23T16:07:54.979Z,13.20
2023-03-23T16:10:23.774Z,13.40
2023-03-23T16:12:52.558Z,13.30
2023-03-23T16:15:19.953Z,13.30
2023-03-23T16:17:46.846Z,13.30
2023-03-23T16:20:21.999Z,13.50
2023-03-23T16:22:50.010Z,13.50
2023-03-23T16:25:18.678Z,13.60
2023-03-23T16:27:52.356Z,13.60
2023-03-23T16:30:23.196Z,13.40
2023-03-23T16:32:49.750Z,13.40
2023-03-23T16:35:19.540Z,13.30
2023-03-23T16:37:48.315Z,13.30
2023-03-23T16:40:15.928Z,13.20
2023-03-23T16:42:43.049Z,13.40
2023-03-23T16:45:10.339Z,13.50
2023-03-23T16:47:38.439Z,13.50
2023-03-23T16:50:08.473Z,13.50
2023-03-23T16:52:35.370Z,13.40
2023-03-23T16:55:14.926Z,13.40
2023-03-23T16:57:43.377Z,13.40
2023-03-23T17:00:15.291Z,13.50
2023-03-23T17:02:43.174Z,13.50
2023-03-23T17:05:11.061Z,13.60
2023-03-23T17:07:39.526Z,13.60
2023-03-23T17:10:10.373Z,13.60
2023-03-23T17:12:41.430Z,13.60
2023-03-23T17:15:12.019Z,13.50
2023-03-23T17:17:38.814Z,13.50
2023-03-23T17:20:06.421Z,13.50
2023-03-23T17:22:33.586Z,13.40
2023-03-23T17:25:00.227Z,13.40
2023-03-23T17:27:27.338Z,13.30
2023-03-23T17:29:53.917Z,13.20
2023-03-23T17:32:21.674Z,13.10
2023-03-23T17:34:48.622Z,13.00
2023-03-23T17:37:15.711Z,13.00
2023-03-23T17:39:44.029Z,12.90
2023-03-23T17:42:13.544Z,12.90
2023-03-23T17:44:40.590Z,12.90
2023-03-23T17:47:07.317Z,12.90
2023-03-23T17:49:34.212Z,12.90
2023-03-23T17:52:00.981Z,12.90
2023-03-23T17:54:29.541Z,12.80
2023-03-23T17:56:58.545Z,12.80
2023-03-23T17:59:25.967Z,12.80
2023-03-23T18:01:53.561Z,12.90
2023-03-23T18:04:22.116Z,12.80
2023-03-23T18:06:48.886Z,12.80
2023-03-23T18:09:16.258Z,12.80
2023-03-23T18:11:42.830Z,12.80
2023-03-23T18:14:09.445Z,12.90
2023-03-23T18:16:36.146Z,12.90
2023-03-23T18:19:02.962Z,12.80
2023-03-23T18:21:31.051Z,12.80
2023-03-23T18:23:59.490Z,12.80
2023-03-23T18:26:28.283Z,12.70
2023-03-23T18:28:55.745Z,12.70
2023-03-23T18:31:23.646Z,12.70
2023-03-23T18:33:51.501Z,12.60
2023-03-23T18:36:21.031Z,12.60
2023-03-23T18:38:48.463Z,12.50
2023-03-23T18:41:16.884Z,12.50
2023-03-23T18:43:43.919Z,12.50
2023-03-23T18:46:10.512Z,12.40
2023-03-23T18:48:37.514Z,12.30
2023-03-23T18:51:04.724Z,12.20
2023-03-23T18:53:31.632Z,12.20
2023-03-23T18:56:08.050Z,12.20
2023-03-23T18:58:34.938Z,12.10
2023-03-23T19:01:09.162Z,11.90
2023-03-23T19:03:37.969Z,11.90
2023-03-23T19:06:06.264Z,11.90
2023-03-23T19:08:33.383Z,11.90
2023-03-23T19:11:02.709Z,11.90
2023-03-23T19:13:31.043Z,11.90
2023-03-23T19:15:57.897Z,11.90
2023-03-23T19:18:24.486Z,11.80
2023-03-23T19:23:22.121Z,11.70
2023-03-23T19:25:49.269Z,11.70
2023-03-23T19:30:47.553Z,11.60
2023-03-23T19:33:15.145Z,11.60
2023-03-23T19:35:42.378Z,11.60
2023-03-23T19:38:09.468Z,11.70
2023-03-23T19:40:42.057Z,11.80
2023-03-23T19:43:09.259Z,11.70
2023-03-23T19:45:36.439Z,11.70
2023-03-23T19:48:03.146Z,11.70
2023-03-23T19:50:30.203Z,11.70
2023-03-23T19:52:58.685Z,11.80
2023-03-23T19:55:26.980Z,11.80
2023-03-23T19:57:53.913Z,11.80
2023-03-23T20:00:20.810Z,11.80
2023-03-23T20:02:49.754Z,11.80
2023-03-23T20:05:16.617Z,11.70
2023-03-23T20:07:47.876Z,11.70
2023-03-23T20:10:17.215Z,11.60
2023-03-23T20:12:43.750Z,11.60
2023-03-23T20:15:11.236Z,11.60
2023-03-23T20:17:37.902Z,11.60
2023-03-23T20:20:10.261Z,11.60
2023-03-23T20:22:38.090Z,11.60
2023-03-23T20:25:05.366Z,11.60
2023-03-23T20:27:32.443Z,11.60
2023-03-23T20:29:59.177Z,11.60
2023-03-23T20:32:26.058Z,11.60
2023-03-23T20:34:52.991Z,11.60
2023-03-23T20:37:20.715Z,11.60
2023-03-23T20:39:48.640Z,11.60
2023-03-23T20:42:16.870Z,11.60
2023-03-23T20:44:43.751Z,11.50
2023-03-23T20:47:10.825Z,11.50
2023-03-23T20:49:38.415Z,11.50
2023-03-23T20:52:09.596Z,11.50
2023-03-23T20:54:37.762Z,11.40
2023-03-23T20:57:04.370Z,11.40
2023-03-23T20:59:31.078Z,11.40
2023-03-23T21:01:57.751Z,11.40
2023-03-23T21:04:27.240Z,11.40
2023-03-23T21:06:54.524Z,11.40
2023-03-23T21:09:21.643Z,11.40
2023-03-23T21:11:48.386Z,11.40
2023-03-23T21:14:15.448Z,11.40
2023-03-23T21:16:42.739Z,11.40
2023-03-23T21:19:10.327Z,11.30
2023-03-23T21:21:37.046Z,11.30
2023-03-23T21:24:03.693Z,11.40
2023-03-23T21:26:30.533Z,11.40
2023-03-23T21:29:00.696Z,11.40
2023-03-23T21:31:33.015Z,11.40
2023-03-23T21:33:59.761Z,11.40
2023-03-23T21:36:27.231Z,11.30
2023-03-23T21:38:56.467Z,11.40
2023-03-23T21:41:23.916Z,11.40
2023-03-23T21:43:50.614Z,11.40
2023-03-23T21:46:18.111Z,11.40
2023-03-23T21:48:52.276Z,11.40
2023-03-23T21:51:24.968Z,11.40
2023-03-23T21:53:54.063Z,11.40
2023-03-23T21:56:22.788Z,11.40
2023-03-23T21:58:49.366Z,11.40
2023-03-23T22:01:17.392Z,11.40
2023-03-23T22:03:45.079Z,11.40
2023-03-23T22:06:18.770Z,11.50
2023-03-23T22:08:46.414Z,11.50
2023-03-23T22:11:23.116Z,11.50
2023-03-23T22:13:51.235Z,11.50
2023-03-23T22:16:18.652Z,11.50
2023-03-23T22:18:46.286Z,11.50
2023-03-23T22:21:14.293Z,11.50
2023-03-23T22:23:41.623Z,11.50
2023-03-23T22:26:09.108Z,11.50
2023-03-23T22:28:38.505Z,11.60
2023-03-23T22:31:08.110Z,11.60
2023-03-23T22:33:36.597Z,11.60
2023-03-23T22:36:06.157Z,11.60
2023-03-23T22:38:34.775Z,11.60
2023-03-23T22:41:04.434Z,11.60
2023-03-23T22:43:31.152Z,11.60
2023-03-23T22:45:57.788Z,11.60
2023-03-23T22:48:25.935Z,11.50
2023-03-23T22:50:53.024Z,11.60
2023-03-23T22:53:20.662Z,11.60
2023-03-23T22:55:50.200Z,11.50
2023-03-23T22:58:17.170Z,11.50
2023-03-23T23:00:46.455Z,11.60
2023-03-23T23:03:13.525Z,11.60
2023-03-23T23:05:45.250Z,11.60
2023-03-23T23:08:15.941Z,11.60
2023-03-23T23:10:46.636Z,11.60
2023-03-23T23:13:14.443Z,11.60
2023-03-23T23:15:43.658Z,11.70
2023-03-23T23:18:10.496Z,11.70
2023-03-23T23:20:37.578Z,11.70
2023-03-23T23:23:05.225Z,11.70
2023-03-23T23:25:32.536Z,11.70
2023-03-23T23:28:02.516Z,11.70
2023-03-23T23:30:29.703Z,11.70
2023-03-23T23:32:56.862Z,11.60
2023-03-23T23:35:23.744Z,11.60
2023-03-23T23:37:50.534Z,11.60
2023-03-23T23:40:18.247Z,11.60
2023-03-23T23:42:47.042Z,11.60
2023-03-23T23:45:14.344Z,11.60
2023-03-23T23:47:41.708Z,11.70
2023-03-23T23:50:10.543Z,11.70
2023-03-23T23:52:37.974Z,11.70
2023-03-23T23:55:07.302Z,11.80
2023-03-23T23:57:34.399Z,11.80
